sensor_id;sensor_type;location;lat;lon;timestamp;temperature;humidity
1468;DHT22;727;48.892;9.544;2023-04-01T00:01:58;9.70;99.90
1468;DHT22;727;48.892;9.544;2023-04-01T00:04:26;9.70;99.90
1468;DHT22;727;48.892;9.544;2023-04-01T00:06:53;9.70;99.90
1468;DHT22;727;48.892;9.544;2023-04-01T00:09:21;9.60;99.90
1468;DHT22;727;48.892;9.544;2023-04-01T00:11:48;9.60;99.90
1468;DHT22;727;48.892;9.544;2023-04-01T00:14:16;9.60;99.90
1468;DHT22;727;48.892;9.544;2023-04-01T00:16:43;9.60;99.90
1468;DHT22;727;48.892;9.544;2023-04-01T00:19:10;9.70;99.90
1468;DHT22;727;48.892;9.544;2023-04-01T00:21:39;9.60;99.90
1468;DHT22;727;48.892;9.544;2023-04-01T00:24:06;9.60;99.90
1468;DHT22;727;48.892;9.544;2023-04-01T00:26:33;9.60;99.90
1468;DHT22;727;48.892;9.544;2023-04-01T00:29:00;9.60;99.90
1468;DHT22;727;48.892;9.544;2023-04-01T00:31:28;9.60;99.90
1468;DHT22;727;48.892;9.544;2023-04-01T00:33:55;9.60;99.90
1468;DHT22;727;48.892;9.544;2023-04-01T00:36:23;9.60;99.90
1468;DHT22;727;48.892;9.544;2023-04-01T00:38:51;9.60;99.90
1468;DHT22;727;48.892;9.544;2023-04-01T00:41:21;9.60;99.90
1468;DHT22;727;48.892;9.544;2023-04-01T00:43:49;9.60;99.90
1468;DHT22;727;48.892;9.544;2023-04-01T00:46:17;9.60;99.90
1468;DHT22;727;48.892;9.544;2023-04-01T00:48:47;9.60;99.90
1468;DHT22;727;48.892;9.544;2023-04-01T00:51:19;9.70;99.90
1468;DHT22;727;48.892;9.544;2023-04-01T00:53:50;9.70;99.90
1468;DHT22;727;48.892;9.544;2023-04-01T00:56:21;9.60;99.90
1468;DHT22;727;48.892;9.544;2023-04-01T00:58:51;9.50;99.90
1468;DHT22;727;48.892;9.544;2023-04-01T01:01:20;9.50;99.90
1468;DHT22;727;48.892;9.544;2023-04-01T01:03:48;9.50;99.90
1468;DHT22;727;48.892;9.544;2023-04-01T01:06:23;9.40;99.90
1468;DHT22;727;48.892;9.544;2023-04-01T01:09:03;9.40;99.90
1468;DHT22;727;48.892;9.544;2023-04-01T01:11:37;9.30;99.90
1468;DHT22;727;48.892;9.544;2023-04-01T01:14:14;9.40;99.90
1468;DHT22;727;48.892;9.544;2023-04-01T01:16:45;9.40;99.90
1468;DHT22;727;48.892;9.544;2023-04-01T01:19:32;9.40;99.90
1468;DHT22;727;48.892;9.544;2023-04-01T01:22:23;9.40;99.90
1468;DHT22;727;48.892;9.544;2023-04-01T01:24:58;9.40;99.90
1468;DHT22;727;48.892;9.544;2023-04-01T01:27:32;9.50;99.90
1468;DHT22;727;48.892;9.544;2023-04-01T01:30:22;9.50;99.90
1468;DHT22;727;48.892;9.544;2023-04-01T01:33:06;9.60;99.90
1468;DHT22;727;48.892;9.544;2023-04-01T01:35:40;9.60;99.90
1468;DHT22;727;48.892;9.544;2023-04-01T01:38:11;9.60;99.90
1468;DHT22;727;48.892;9.544;2023-04-01T01:40:41;9.60;99.90
1468;DHT22;727;48.892;9.544;2023-04-01T01:43:11;9.60;99.90
1468;DHT22;727;48.892;9.544;2023-04-01T01:45:43;9.60;99.90
1468;DHT22;727;48.892;9.544;2023-04-01T01:48:11;9.50;99.90
1468;DHT22;727;48.892;9.544;2023-04-01T01:50:41;9.50;99.90
1468;DHT22;727;48.892;9.544;2023-04-01T01:53:10;9.50;99.90
1468;DHT22;727;48.892;9.544;2023-04-01T01:55:39;9.50;99.90
1468;DHT22;727;48.892;9.544;2023-04-01T01:58:11;9.50;99.90
1468;DHT22;727;48.892;9.544;2023-04-01T02:00:42;9.50;99.90
1468;DHT22;727;48.892;9.544;2023-04-01T02:03:11;9.50;99.90
1468;DHT22;727;48.892;9.544;2023-04-01T02:05:40;9.60;99.90
1468;DHT22;727;48.892;9.544;2023-04-01T02:08:10;9.50;99.90
1468;DHT22;727;48.892;9.544;2023-04-01T02:10:41;9.60;99.90
1468;DHT22;727;48.892;9.544;2023-04-01T02:13:19;9.50;99.90
1468;DHT22;727;48.892;9.544;2023-04-01T02:15:50;9.50;99.90
1468;DHT22;727;48.892;9.544;2023-04-01T02:18:19;9.50;99.90
1468;DHT22;727;48.892;9.544;2023-04-01T02:20:48;9.50;99.90
1468;DHT22;727;48.892;9.544;2023-04-01T02:23:16;9.40;99.90
1468;DHT22;727;48.892;9.544;2023-04-01T02:25:43;9.40;99.90
1468;DHT22;727;48.892;9.544;2023-04-01T02:28:12;9.40;99.90
1468;DHT22;727;48.892;9.544;2023-04-01T02:30:43;9.40;99.90
1468;DHT22;727;48.892;9.544;2023-04-01T02:33:10;9.30;99.90
1468;DHT22;727;48.892;9.544;2023-04-01T02:35:37;9.30;99.90
1468;DHT22;727;48.892;9.544;2023-04-01T02:38:06;9.30;99.90
1468;DHT22;727;48.892;9.544;2023-04-01T02:40:45;9.30;99.90
1468;DHT22;727;48.892;9.544;2023-04-01T02:43:12;9.30;99.90
1468;DHT22;727;48.892;9.544;2023-04-01T02:45:40;9.30;99.90
1468;DHT22;727;48.892;9.544;2023-04-01T02:48:06;9.30;99.90
1468;DHT22;727;48.892;9.544;2023-04-01T02:50:33;9.30;99.90
1468;DHT22;727;48.892;9.544;2023-04-01T02:53:00;9.20;99.90
1468;DHT22;727;48.892;9.544;2023-04-01T02:55:29;9.30;99.90
1468;DHT22;727;48.892;9.544;2023-04-01T02:57:56;9.20;99.90
1468;DHT22;727;48.892;9.544;2023-04-01T03:00:23;9.20;99.90
1468;DHT22;727;48.892;9.544;2023-04-01T03:02:51;9.10;99.90
1468;DHT22;727;48.892;9.544;2023-04-01T03:05:18;9.20;99.90
1468;DHT22;727;48.892;9.544;2023-04-01T03:07:45;9.20;99.90
1468;DHT22;727;48.892;9.544;2023-04-01T03:10:12;9.20;99.90
1468;DHT22;727;48.892;9.544;2023-04-01T03:12:40;9.10;99.90
1468;DHT22;727;48.892;9.544;2023-04-01T03:15:10;9.20;99.90
1468;DHT22;727;48.892;9.544;2023-04-01T03:17:37;9.20;99.90
1468;DHT22;727;48.892;9.544;2023-04-01T03:20:05;9.10;99.90
1468;DHT22;727;48.892;9.544;2023-04-01T03:22:33;9.20;99.90
1468;DHT22;727;48.892;9.544;2023-04-01T03:25:00;9.20;99.90
1468;DHT22;727;48.892;9.544;2023-04-01T03:27:27;9.10;99.90
1468;DHT22;727;48.892;9.544;2023-04-01T03:29:56;9.10;99.90
1468;DHT22;727;48.892;9.544;2023-04-01T03:32:23;9.10;99.90
1468;DHT22;727;48.892;9.544;2023-04-01T03:34:50;9.10;99.90
1468;DHT22;727;48.892;9.544;2023-04-01T03:37:17;9.20;99.90
1468;DHT22;727;48.892;9.544;2023-04-01T03:39:44;9.20;99.90
1468;DHT22;727;48.892;9.544;2023-04-01T03:42:12;9.20;99.90
1468;DHT22;727;48.892;9.544;2023-04-01T03:44:38;9.20;99.90
1468;DHT22;727;48.892;9.544;2023-04-01T03:47:07;9.20;99.90
1468;DHT22;727;48.892;9.544;2023-04-01T03:49:34;9.20;99.90
1468;DHT22;727;48.892;9.544;2023-04-01T03:52:01;9.20;99.90
1468;DHT22;727;48.892;9.544;2023-04-01T03:54:28;9.20;99.90
1468;DHT22;727;48.892;9.544;2023-04-01T03:56:55;9.10;99.90
1468;DHT22;727;48.892;9.544;2023-04-01T03:59:23;9.10;99.90
1468;DHT22;727;48.892;9.544;2023-04-01T04:01:50;9.00;99.90
1468;DHT22;727;48.892;9.544;2023-04-01T04:04:21;9.10;99.90
1468;DHT22;727;48.892;9.544;2023-04-01T04:06:48;9.10;99.90
1468;DHT22;727;48.892;9.544;2023-04-01T04:09:16;9.10;99.90
1468;DHT22;727;48.892;9.544;2023-04-01T04:11:43;9.10;99.90
1468;DHT22;727;48.892;9.544;2023-04-01T04:14:10;9.00;99.90
1468;DHT22;727;48.892;9.544;2023-04-01T04:16:38;9.00;99.90
1468;DHT22;727;48.892;9.544;2023-04-01T04:19:05;9.00;99.90
1468;DHT22;727;48.892;9.544;2023-04-01T04:21:33;8.90;99.90
1468;DHT22;727;48.892;9.544;2023-04-01T04:24:00;9.00;99.90
1468;DHT22;727;48.892;9.544;2023-04-01T04:26:27;8.90;99.90
1468;DHT22;727;48.892;9.544;2023-04-01T04:28:55;8.90;99.90
1468;DHT22;727;48.892;9.544;2023-04-01T04:31:23;9.00;99.90
1468;DHT22;727;48.892;9.544;2023-04-01T04:33:50;9.00;99.90
1468;DHT22;727;48.892;9.544;2023-04-01T04:36:18;9.00;99.90
1468;DHT22;727;48.892;9.544;2023-04-01T04:38:47;9.00;99.90
1468;DHT22;727;48.892;9.544;2023-04-01T04:41:16;9.00;99.90
1468;DHT22;727;48.892;9.544;2023-04-01T04:43:49;8.90;99.90
1468;DHT22;727;48.892;9.544;2023-04-01T04:46:19;8.90;99.90
1468;DHT22;727;48.892;9.544;2023-04-01T04:48:46;9.00;99.90
1468;DHT22;727;48.892;9.544;2023-04-01T04:51:14;8.90;99.90
1468;DHT22;727;48.892;9.544;2023-04-01T04:53:43;8.90;99.90
1468;DHT22;727;48.892;9.544;2023-04-01T04:56:16;8.90;99.90
1468;DHT22;727;48.892;9.544;2023-04-01T04:58:43;8.90;99.90
1468;DHT22;727;48.892;9.544;2023-04-01T05:01:14;8.80;99.90
1468;DHT22;727;48.892;9.544;2023-04-01T05:03:41;8.90;99.90
1468;DHT22;727;48.892;9.544;2023-04-01T05:06:09;8.90;99.90
1468;DHT22;727;48.892;9.544;2023-04-01T05:08:38;8.90;99.90
1468;DHT22;727;48.892;9.544;2023-04-01T05:11:07;8.80;99.90
1468;DHT22;727;48.892;9.544;2023-04-01T05:13:37;8.80;99.90
1468;DHT22;727;48.892;9.544;2023-04-01T05:16:08;8.90;99.90
1468;DHT22;727;48.892;9.544;2023-04-01T05:18:34;8.80;99.90
1468;DHT22;727;48.892;9.544;2023-04-01T05:21:01;8.80;99.90
1468;DHT22;727;48.892;9.544;2023-04-01T05:23:32;8.80;99.90
1468;DHT22;727;48.892;9.544;2023-04-01T05:26:02;8.80;99.90
1468;DHT22;727;48.892;9.544;2023-04-01T05:28:28;8.80;99.90
1468;DHT22;727;48.892;9.544;2023-04-01T05:31:00;8.90;99.90
1468;DHT22;727;48.892;9.544;2023-04-01T05:33:27;8.90;99.90
1468;DHT22;727;48.892;9.544;2023-04-01T05:35:55;8.90;99.90
1468;DHT22;727;48.892;9.544;2023-04-01T05:38:22;8.90;99.90
1468;DHT22;727;48.892;9.544;2023-04-01T05:40:49;8.90;99.90
1468;DHT22;727;48.892;9.544;2023-04-01T05:43:16;9.00;99.90
1468;DHT22;727;48.892;9.544;2023-04-01T05:45:43;9.00;99.90
1468;DHT22;727;48.892;9.544;2023-04-01T05:48:11;9.10;99.90
1468;DHT22;727;48.892;9.544;2023-04-01T05:50:40;9.10;99.90
1468;DHT22;727;48.892;9.544;2023-04-01T05:53:07;9.20;99.90
1468;DHT22;727;48.892;9.544;2023-04-01T05:55:34;9.20;99.90
1468;DHT22;727;48.892;9.544;2023-04-01T05:58:01;9.20;99.90
1468;DHT22;727;48.892;9.544;2023-04-01T06:00:28;9.30;99.90
1468;DHT22;727;48.892;9.544;2023-04-01T06:02:57;9.30;99.90
1468;DHT22;727;48.892;9.544;2023-04-01T06:05:28;9.30;99.90
1468;DHT22;727;48.892;9.544;2023-04-01T06:07:58;9.30;99.90
1468;DHT22;727;48.892;9.544;2023-04-01T06:10:35;9.40;99.90
1468;DHT22;727;48.892;9.544;2023-04-01T06:13:07;9.40;99.90
1468;DHT22;727;48.892;9.544;2023-04-01T06:15:43;9.50;99.90
1468;DHT22;727;48.892;9.544;2023-04-01T06:18:38;9.50;99.90
1468;DHT22;727;48.892;9.544;2023-04-01T06:21:21;9.50;99.90
1468;DHT22;727;48.892;9.544;2023-04-01T06:23:59;9.50;99.90
1468;DHT22;727;48.892;9.544;2023-04-01T06:26:34;9.50;99.90
1468;DHT22;727;48.892;9.544;2023-04-01T06:29:21;9.60;99.90
1468;DHT22;727;48.892;9.544;2023-04-01T06:32:00;9.60;99.90
1468;DHT22;727;48.892;9.544;2023-04-01T06:34:49;9.70;99.90
1468;DHT22;727;48.892;9.544;2023-04-01T06:40:40;9.90;99.90
1468;DHT22;727;48.892;9.544;2023-04-01T06:43:14;9.90;99.90
1468;DHT22;727;48.892;9.544;2023-04-01T06:45:48;10.00;99.90
1468;DHT22;727;48.892;9.544;2023-04-01T06:48:30;10.10;99.90
1468;DHT22;727;48.892;9.544;2023-04-01T06:51:07;10.10;99.90
1468;DHT22;727;48.892;9.544;2023-04-01T06:53:45;10.20;99.90
1468;DHT22;727;48.892;9.544;2023-04-01T06:56:15;10.30;99.90
1468;DHT22;727;48.892;9.544;2023-04-01T06:58:47;10.30;99.90
1468;DHT22;727;48.892;9.544;2023-04-01T07:01:19;10.30;99.90
1468;DHT22;727;48.892;9.544;2023-04-01T07:03:49;10.30;99.90
1468;DHT22;727;48.892;9.544;2023-04-01T07:06:25;10.30;99.90
1468;DHT22;727;48.892;9.544;2023-04-01T07:08:57;10.20;99.90
1468;DHT22;727;48.892;9.544;2023-04-01T07:11:29;10.10;99.90
1468;DHT22;727;48.892;9.544;2023-04-01T07:14:01;10.10;99.90
1468;DHT22;727;48.892;9.544;2023-04-01T07:16:30;10.00;99.90
1468;DHT22;727;48.892;9.544;2023-04-01T07:19:02;10.00;99.90
1468;DHT22;727;48.892;9.544;2023-04-01T07:21:34;10.00;99.90
1468;DHT22;727;48.892;9.544;2023-04-01T07:24:06;10.00;99.90
1468;DHT22;727;48.892;9.544;2023-04-01T07:26:36;10.00;99.90
1468;DHT22;727;48.892;9.544;2023-04-01T07:29:08;10.10;99.90
1468;DHT22;727;48.892;9.544;2023-04-01T07:31:49;10.10;99.90
1468;DHT22;727;48.892;9.544;2023-04-01T07:34:23;10.10;99.90
1468;DHT22;727;48.892;9.544;2023-04-01T07:36:54;10.10;99.90
1468;DHT22;727;48.892;9.544;2023-04-01T07:39:33;10.10;99.90
1468;DHT22;727;48.892;9.544;2023-04-01T07:42:09;10.20;99.90
1468;DHT22;727;48.892;9.544;2023-04-01T07:44:41;10.30;99.90
1468;DHT22;727;48.892;9.544;2023-04-01T07:47:28;10.30;99.90
1468;DHT22;727;48.892;9.544;2023-04-01T07:50:09;10.30;99.90
1468;DHT22;727;48.892;9.544;2023-04-01T07:53:05;10.30;99.90
1468;DHT22;727;48.892;9.544;2023-04-01T07:55:40;10.30;99.90
1468;DHT22;727;48.892;9.544;2023-04-01T07:58:14;10.30;99.90
1468;DHT22;727;48.892;9.544;2023-04-01T08:00:51;10.30;99.90
1468;DHT22;727;48.892;9.544;2023-04-01T08:03:35;10.30;99.90
1468;DHT22;727;48.892;9.544;2023-04-01T08:06:08;10.30;99.90
1468;DHT22;727;48.892;9.544;2023-04-01T08:08:45;10.20;99.90
1468;DHT22;727;48.892;9.544;2023-04-01T08:11:25;10.20;99.90
1468;DHT22;727;48.892;9.544;2023-04-01T08:14:02;10.20;99.90
1468;DHT22;727;48.892;9.544;2023-04-01T08:16:37;10.30;99.90
1468;DHT22;727;48.892;9.544;2023-04-01T08:19:16;10.30;99.90
1468;DHT22;727;48.892;9.544;2023-04-01T08:21:47;10.30;99.90
1468;DHT22;727;48.892;9.544;2023-04-01T08:24:21;10.40;99.90
1468;DHT22;727;48.892;9.544;2023-04-01T08:26:55;10.40;99.90
1468;DHT22;727;48.892;9.544;2023-04-01T08:29:26;10.40;99.90
1468;DHT22;727;48.892;9.544;2023-04-01T08:32:01;10.50;99.90
1468;DHT22;727;48.892;9.544;2023-04-01T08:34:34;10.50;99.90
1468;DHT22;727;48.892;9.544;2023-04-01T08:37:05;10.40;99.90
1468;DHT22;727;48.892;9.544;2023-04-01T08:39:35;10.50;99.90
1468;DHT22;727;48.892;9.544;2023-04-01T08:42:30;10.50;99.90
1468;DHT22;727;48.892;9.544;2023-04-01T08:45:21;10.50;99.90
1468;DHT22;727;48.892;9.544;2023-04-01T08:48:08;10.50;99.90
1468;DHT22;727;48.892;9.544;2023-04-01T08:50:52;10.50;99.90
1468;DHT22;727;48.892;9.544;2023-04-01T08:53:34;10.60;99.90
1468;DHT22;727;48.892;9.544;2023-04-01T08:56:13;10.60;99.90
1468;DHT22;727;48.892;9.544;2023-04-01T09:02:05;10.50;99.90
1468;DHT22;727;48.892;9.544;2023-04-01T09:04:51;10.40;99.90
1468;DHT22;727;48.892;9.544;2023-04-01T09:07:34;10.40;99.90
1468;DHT22;727;48.892;9.544;2023-04-01T09:10:28;10.40;99.90
1468;DHT22;727;48.892;9.544;2023-04-01T09:13:24;10.40;99.90
1468;DHT22;727;48.892;9.544;2023-04-01T09:16:18;10.30;99.90
1468;DHT22;727;48.892;9.544;2023-04-01T09:19:04;10.30;99.90
1468;DHT22;727;48.892;9.544;2023-04-01T09:21:46;10.30;99.90
1468;DHT22;727;48.892;9.544;2023-04-01T09:24:36;10.30;99.90
1468;DHT22;727;48.892;9.544;2023-04-01T09:27:13;10.20;99.90
1468;DHT22;727;48.892;9.544;2023-04-01T09:30:10;10.20;99.90
1468;DHT22;727;48.892;9.544;2023-04-01T09:32:58;10.10;99.90
1468;DHT22;727;48.892;9.544;2023-04-01T09:35:38;10.20;99.90
1468;DHT22;727;48.892;9.544;2023-04-01T09:38:20;10.20;99.90
1468;DHT22;727;48.892;9.544;2023-04-01T09:40:54;10.20;99.90
1468;DHT22;727;48.892;9.544;2023-04-01T09:43:30;10.20;99.90
1468;DHT22;727;48.892;9.544;2023-04-01T09:46:21;10.20;99.90
1468;DHT22;727;48.892;9.544;2023-04-01T09:49:18;10.30;99.90
1468;DHT22;727;48.892;9.544;2023-04-01T09:51:58;10.40;99.90
1468;DHT22;727;48.892;9.544;2023-04-01T09:54:38;10.40;99.90
1468;DHT22;727;48.892;9.544;2023-04-01T09:57:25;10.40;99.90
1468;DHT22;727;48.892;9.544;2023-04-01T10:00:15;10.40;99.90
1468;DHT22;727;48.892;9.544;2023-04-01T10:09:43;10.40;99.90
1468;DHT22;727;48.892;9.544;2023-04-01T10:12:49;10.40;99.90
1468;DHT22;727;48.892;9.544;2023-04-01T10:15:53;10.40;99.90
1468;DHT22;727;48.892;9.544;2023-04-01T10:25:05;10.50;99.90
1468;DHT22;727;48.892;9.544;2023-04-01T10:28:01;10.60;99.90
1468;DHT22;727;48.892;9.544;2023-04-01T10:31:09;10.60;99.90
1468;DHT22;727;48.892;9.544;2023-04-01T10:34:00;10.60;99.90
1468;DHT22;727;48.892;9.544;2023-04-01T10:36:50;10.50;99.90
1468;DHT22;727;48.892;9.544;2023-04-01T10:39:58;10.50;99.90
1468;DHT22;727;48.892;9.544;2023-04-01T10:42:59;10.50;99.90
1468;DHT22;727;48.892;9.544;2023-04-01T10:45:53;10.50;99.90
1468;DHT22;727;48.892;9.544;2023-04-01T10:49:06;10.50;99.90
1468;DHT22;727;48.892;9.544;2023-04-01T10:54:49;10.40;99.90
1468;DHT22;727;48.892;9.544;2023-04-01T10:57:52;10.30;99.90
1468;DHT22;727;48.892;9.544;2023-04-01T11:00:57;10.30;99.90
1468;DHT22;727;48.892;9.544;2023-04-01T11:03:46;10.30;99.90
1468;DHT22;727;48.892;9.544;2023-04-01T11:06:47;10.30;99.90
1468;DHT22;727;48.892;9.544;2023-04-01T11:10:03;10.30;99.90
1468;DHT22;727;48.892;9.544;2023-04-01T11:13:07;10.30;99.90
1468;DHT22;727;48.892;9.544;2023-04-01T11:19:19;10.30;99.90
1468;DHT22;727;48.892;9.544;2023-04-01T11:22:09;10.30;99.90
1468;DHT22;727;48.892;9.544;2023-04-01T11:28:01;10.30;99.90
1468;DHT22;727;48.892;9.544;2023-04-01T11:30:56;10.20;99.90
1468;DHT22;727;48.892;9.544;2023-04-01T11:33:29;10.20;99.90
1468;DHT22;727;48.892;9.544;2023-04-01T11:36:18;10.30;99.90
1468;DHT22;727;48.892;9.544;2023-04-01T11:39:03;10.30;99.90
1468;DHT22;727;48.892;9.544;2023-04-01T11:41:36;10.40;99.90
1468;DHT22;727;48.892;9.544;2023-04-01T11:44:15;10.40;99.90
1468;DHT22;727;48.892;9.544;2023-04-01T11:46:52;10.40;99.90
1468;DHT22;727;48.892;9.544;2023-04-01T11:49:36;10.50;99.90
1468;DHT22;727;48.892;9.544;2023-04-01T11:52:18;10.50;99.90
1468;DHT22;727;48.892;9.544;2023-04-01T11:55:06;10.60;99.90
1468;DHT22;727;48.892;9.544;2023-04-01T11:57:51;10.60;99.90
1468;DHT22;727;48.892;9.544;2023-04-01T12:00:38;10.60;99.90
1468;DHT22;727;48.892;9.544;2023-04-01T12:03:33;10.60;99.90
1468;DHT22;727;48.892;9.544;2023-04-01T12:06:09;10.70;99.90
1468;DHT22;727;48.892;9.544;2023-04-01T12:08:46;10.70;99.90
1468;DHT22;727;48.892;9.544;2023-04-01T12:11:25;10.70;99.90
1468;DHT22;727;48.892;9.544;2023-04-01T12:14:02;10.70;99.90
1468;DHT22;727;48.892;9.544;2023-04-01T12:16:41;10.70;99.90
1468;DHT22;727;48.892;9.544;2023-04-01T12:19:15;10.70;99.90
1468;DHT22;727;48.892;9.544;2023-04-01T12:21:52;10.70;99.90
1468;DHT22;727;48.892;9.544;2023-04-01T12:24:45;10.70;99.90
1468;DHT22;727;48.892;9.544;2023-04-01T12:27:27;10.70;99.90
1468;DHT22;727;48.892;9.544;2023-04-01T12:30:06;10.70;99.90
1468;DHT22;727;48.892;9.544;2023-04-01T12:32:41;10.80;99.90
1468;DHT22;727;48.892;9.544;2023-04-01T12:35:20;10.90;99.90
1468;DHT22;727;48.892;9.544;2023-04-01T12:37:55;10.90;99.90
1468;DHT22;727;48.892;9.544;2023-04-01T12:40:36;11.00;99.90
1468;DHT22;727;48.892;9.544;2023-04-01T12:43:25;10.90;99.90
1468;DHT22;727;48.892;9.544;2023-04-01T12:45:59;10.90;99.90
1468;DHT22;727;48.892;9.544;2023-04-01T12:48:50;10.90;99.90
1468;DHT22;727;48.892;9.544;2023-04-01T12:54:48;11.00;99.90
1468;DHT22;727;48.892;9.544;2023-04-01T12:57:45;11.00;99.90
1468;DHT22;727;48.892;9.544;2023-04-01T13:00:32;11.00;99.90
1468;DHT22;727;48.892;9.544;2023-04-01T13:03:13;11.10;99.90
1468;DHT22;727;48.892;9.544;2023-04-01T13:06:13;11.10;99.90
1468;DHT22;727;48.892;9.544;2023-04-01T13:08:52;11.00;99.90
1468;DHT22;727;48.892;9.544;2023-04-01T13:11:30;11.00;99.90
1468;DHT22;727;48.892;9.544;2023-04-01T13:14:20;11.00;99.90
1468;DHT22;727;48.892;9.544;2023-04-01T13:16:54;11.00;99.90
1468;DHT22;727;48.892;9.544;2023-04-01T13:19:28;10.90;99.90
1468;DHT22;727;48.892;9.544;2023-04-01T13:22:04;10.90;99.90
1468;DHT22;727;48.892;9.544;2023-04-01T13:24:42;10.90;99.90
1468;DHT22;727;48.892;9.544;2023-04-01T13:27:14;10.80;99.90
1468;DHT22;727;48.892;9.544;2023-04-01T13:29:45;10.80;99.90
1468;DHT22;727;48.892;9.544;2023-04-01T13:32:20;10.80;99.90
1468;DHT22;727;48.892;9.544;2023-04-01T13:35:00;10.80;99.90
1468;DHT22;727;48.892;9.544;2023-04-01T13:37:49;10.80;99.90
1468;DHT22;727;48.892;9.544;2023-04-01T13:40:28;10.80;99.90
1468;DHT22;727;48.892;9.544;2023-04-01T13:43:02;10.70;99.90
1468;DHT22;727;48.892;9.544;2023-04-01T13:45:37;10.70;99.90
1468;DHT22;727;48.892;9.544;2023-04-01T13:48:30;10.70;99.90
1468;DHT22;727;48.892;9.544;2023-04-01T13:51:25;10.70;99.90
1468;DHT22;727;48.892;9.544;2023-04-01T13:54:26;10.60;99.90
1468;DHT22;727;48.892;9.544;2023-04-01T13:57:07;10.50;99.90
1468;DHT22;727;48.892;9.544;2023-04-01T14:03:03;10.50;99.90
1468;DHT22;727;48.892;9.544;2023-04-01T14:06:04;10.40;99.90
1468;DHT22;727;48.892;9.544;2023-04-01T14:08:42;10.40;99.90
1468;DHT22;727;48.892;9.544;2023-04-01T14:11:19;10.40;99.90
1468;DHT22;727;48.892;9.544;2023-04-01T14:13:58;10.30;99.90
1468;DHT22;727;48.892;9.544;2023-04-01T14:19:41;10.30;99.90
1468;DHT22;727;48.892;9.544;2023-04-01T14:22:23;10.30;99.90
1468;DHT22;727;48.892;9.544;2023-04-01T14:25:22;10.30;99.90
1468;DHT22;727;48.892;9.544;2023-04-01T14:27:59;10.40;99.90
1468;DHT22;727;48.892;9.544;2023-04-01T14:30:42;10.40;99.90
1468;DHT22;727;48.892;9.544;2023-04-01T14:33:23;10.50;99.90
1468;DHT22;727;48.892;9.544;2023-04-01T14:36:02;10.50;99.90
1468;DHT22;727;48.892;9.544;2023-04-01T14:38:50;10.50;99.90
1468;DHT22;727;48.892;9.544;2023-04-01T14:41:32;10.40;99.90
1468;DHT22;727;48.892;9.544;2023-04-01T14:44:22;10.30;99.90
1468;DHT22;727;48.892;9.544;2023-04-01T14:47:24;10.30;99.90
1468;DHT22;727;48.892;9.544;2023-04-01T14:50:03;10.30;99.90
1468;DHT22;727;48.892;9.544;2023-04-01T14:52:32;10.30;99.90
1468;DHT22;727;48.892;9.544;2023-04-01T14:55:00;10.10;99.90
1468;DHT22;727;48.892;9.544;2023-04-01T14:57:30;10.10;99.90
1468;DHT22;727;48.892;9.544;2023-04-01T15:00:01;10.10;99.90
1468;DHT22;727;48.892;9.544;2023-04-01T15:02:42;10.00;99.90
1468;DHT22;727;48.892;9.544;2023-04-01T15:05:18;10.00;99.90
1468;DHT22;727;48.892;9.544;2023-04-01T15:08:05;10.00;99.90
1468;DHT22;727;48.892;9.544;2023-04-01T15:10:47;10.00;99.90
1468;DHT22;727;48.892;9.544;2023-04-01T15:16:13;10.10;99.90
1468;DHT22;727;48.892;9.544;2023-04-01T15:18:53;10.10;99.90
1468;DHT22;727;48.892;9.544;2023-04-01T15:21:36;10.10;99.90
1468;DHT22;727;48.892;9.544;2023-04-01T15:24:07;10.10;99.90
1468;DHT22;727;48.892;9.544;2023-04-01T15:26:53;10.10;99.90
1468;DHT22;727;48.892;9.544;2023-04-01T15:29:51;10.10;99.90
1468;DHT22;727;48.892;9.544;2023-04-01T15:32:29;10.20;99.90
1468;DHT22;727;48.892;9.544;2023-04-01T15:35:07;10.20;99.90
1468;DHT22;727;48.892;9.544;2023-04-01T15:37:48;10.10;99.90
1468;DHT22;727;48.892;9.544;2023-04-01T15:40:24;10.20;99.90
1468;DHT22;727;48.892;9.544;2023-04-01T15:43:05;10.10;99.90
1468;DHT22;727;48.892;9.544;2023-04-01T15:45:41;10.00;99.90
1468;DHT22;727;48.892;9.544;2023-04-01T15:48:27;10.00;99.90
1468;DHT22;727;48.892;9.544;2023-04-01T15:51:14;10.00;99.90
1468;DHT22;727;48.892;9.544;2023-04-01T15:56:52;10.00;99.90
1468;DHT22;727;48.892;9.544;2023-04-01T15:59:35;10.00;99.90
1468;DHT22;727;48.892;9.544;2023-04-01T16:02:14;10.00;99.90
1468;DHT22;727;48.892;9.544;2023-04-01T16:04:52;9.90;99.90
1468;DHT22;727;48.892;9.544;2023-04-01T16:07:39;9.90;99.90
1468;DHT22;727;48.892;9.544;2023-04-01T16:10:25;9.90;99.90
1468;DHT22;727;48.892;9.544;2023-04-01T16:13:11;9.90;99.90
1468;DHT22;727;48.892;9.544;2023-04-01T16:15:46;9.80;99.90
1468;DHT22;727;48.892;9.544;2023-04-01T16:18:40;9.80;99.90
1468;DHT22;727;48.892;9.544;2023-04-01T16:21:19;9.70;99.90
1468;DHT22;727;48.892;9.544;2023-04-01T16:23:53;9.70;99.90
1468;DHT22;727;48.892;9.544;2023-04-01T16:26:24;9.70;99.90
1468;DHT22;727;48.892;9.544;2023-04-01T16:28:55;9.70;99.90
1468;DHT22;727;48.892;9.544;2023-04-01T16:31:30;9.70;99.90
1468;DHT22;727;48.892;9.544;2023-04-01T16:34:02;9.60;99.90
1468;DHT22;727;48.892;9.544;2023-04-01T16:36:34;9.70;99.90
1468;DHT22;727;48.892;9.544;2023-04-01T16:39:18;9.70;99.90
1468;DHT22;727;48.892;9.544;2023-04-01T16:41:49;9.70;99.90
1468;DHT22;727;48.892;9.544;2023-04-01T16:44:21;9.70;99.90
1468;DHT22;727;48.892;9.544;2023-04-01T16:46:51;9.70;99.90
1468;DHT22;727;48.892;9.544;2023-04-01T16:49:32;9.60;99.90
1468;DHT22;727;48.892;9.544;2023-04-01T16:52:16;9.70;99.90
1468;DHT22;727;48.892;9.544;2023-04-01T16:54:50;9.60;99.90
1468;DHT22;727;48.892;9.544;2023-04-01T16:57:23;9.60;99.90
1468;DHT22;727;48.892;9.544;2023-04-01T16:59:57;9.60;99.90
1468;DHT22;727;48.892;9.544;2023-04-01T17:02:30;9.70;99.90
1468;DHT22;727;48.892;9.544;2023-04-01T17:05:04;9.70;99.90
1468;DHT22;727;48.892;9.544;2023-04-01T17:07:41;9.70;99.90
1468;DHT22;727;48.892;9.544;2023-04-01T17:13:18;9.70;99.90
1468;DHT22;727;48.892;9.544;2023-04-01T17:15:58;9.70;99.90
1468;DHT22;727;48.892;9.544;2023-04-01T17:18:34;9.60;99.90
1468;DHT22;727;48.892;9.544;2023-04-01T17:21:07;9.50;99.90
1468;DHT22;727;48.892;9.544;2023-04-01T17:23:38;9.50;99.90
1468;DHT22;727;48.892;9.544;2023-04-01T17:26:20;9.50;99.90
1468;DHT22;727;48.892;9.544;2023-04-01T17:28:57;9.50;99.90
1468;DHT22;727;48.892;9.544;2023-04-01T17:31:43;9.50;99.90
1468;DHT22;727;48.892;9.544;2023-04-01T17:34:27;9.40;99.90
1468;DHT22;727;48.892;9.544;2023-04-01T17:37:04;9.30;99.90
1468;DHT22;727;48.892;9.544;2023-04-01T17:40:17;9.30;99.90
1468;DHT22;727;48.892;9.544;2023-04-01T17:42:52;9.20;99.90
1468;DHT22;727;48.892;9.544;2023-04-01T17:45:26;9.20;99.90
1468;DHT22;727;48.892;9.544;2023-04-01T17:48:01;9.20;99.90
1468;DHT22;727;48.892;9.544;2023-04-01T17:50:42;9.10;99.90
1468;DHT22;727;48.892;9.544;2023-04-01T17:53:20;9.10;99.90
1468;DHT22;727;48.892;9.544;2023-04-01T17:56:02;9.10;99.90
1468;DHT22;727;48.892;9.544;2023-04-01T17:58:36;9.00;99.90
1468;DHT22;727;48.892;9.544;2023-04-01T18:01:16;9.00;99.90
1468;DHT22;727;48.892;9.544;2023-04-01T18:04:05;8.90;99.90
1468;DHT22;727;48.892;9.544;2023-04-01T18:06:35;8.90;99.90
1468;DHT22;727;48.892;9.544;2023-04-01T18:09:13;8.90;99.90
1468;DHT22;727;48.892;9.544;2023-04-01T18:11:54;9.00;99.90
1468;DHT22;727;48.892;9.544;2023-04-01T18:14:50;8.90;99.90
1468;DHT22;727;48.892;9.544;2023-04-01T18:17:25;8.90;99.90
1468;DHT22;727;48.892;9.544;2023-04-01T18:20:04;8.90;99.90